Time;durP1;ratioP1;P1;durP2;ratioP2;P2;SDS_P1;SDS_P2;PMS_P1;PMS_P2;Temp;Humidity;BMP_temperature;BMP_pressure;BME280_temperature;BME280_humidity;BME280_pressure;Samples;Min_cycle;Max_cycle;Signal;HPM_P1;HPM_P2
2022/03/07 00:01:41;;;;;;;19.67;11.20;;;4.40;79.00;;;;;;1872863;76;21454;-49
2022/03/07 00:04:14;;;;;;;20.30;11.08;;;4.40;78.90;;;;;;1872958;76;21027;-50
2022/03/07 00:06:41;;;;;;;20.40;11.15;;;4.40;78.90;;;;;;1872820;77;21054;-51
2022/03/07 00:09:11;;;;;;;23.90;11.28;;;4.40;78.70;;;;;;1872930;77;21043;-51
2022/03/07 00:11:41;;;;;;;19.42;10.65;;;4.40;77.30;;;;;;1872834;77;21023;-51
2022/03/07 00:14:10;;;;;;;20.70;11.50;;;4.30;78.60;;;;;;1872933;76;21007;-50
2022/03/07 00:16:40;;;;;;;19.00;11.97;;;4.30;78.80;;;;;;1872831;75;21007;-51
2022/03/07 00:19:09;;;;;;;20.65;11.83;;;4.30;78.70;;;;;;1872827;76;21022;-48
2022/03/07 00:21:38;;;;;;;22.45;12.90;;;4.30;78.70;;;;;;1872791;77;21507;-49
2022/03/07 00:24:08;;;;;;;22.17;11.68;;;4.20;78.50;;;;;;1872923;75;21106;-51
2022/03/07 00:26:38;;;;;;;22.65;13.55;;;4.20;78.80;;;;;;1872951;77;21023;-49
2022/03/07 00:29:07;;;;;;;25.37;13.65;;;4.30;79.50;;;;;;1872822;77;21047;-49
2022/03/07 00:31:38;;;;;;;22.90;13.18;;;4.30;80.10;;;;;;1872759;75;21079;-48
2022/03/07 00:34:08;;;;;;;23.25;12.65;;;4.40;78.80;;;;;;1872958;76;21093;-49
2022/03/07 00:36:38;;;;;;;23.25;13.22;;;4.40;79.00;;;;;;1873009;76;21023;-49
2022/03/07 00:39:07;;;;;;;23.45;12.65;;;4.30;78.90;;;;;;1873043;76;21543;-52
2022/03/07 00:41:37;;;;;;;21.20;12.88;;;4.30;78.90;;;;;;1873033;77;21055;-49
2022/03/07 00:44:06;;;;;;;20.80;11.97;;;4.20;78.90;;;;;;1872926;76;21104;-49
2022/03/07 00:46:36;;;;;;;25.35;13.75;;;4.20;79.00;;;;;;1872941;76;21070;-49
2022/03/07 00:49:05;;;;;;;25.23;12.98;;;4.10;78.80;;;;;;1873012;77;21023;-49
2022/03/07 00:51:35;;;;;;;24.55;13.58;;;4.10;79.20;;;;;;1873083;77;21088;-49
2022/03/07 00:54:05;;;;;;;26.05;14.47;;;4.10;79.30;;;;;;1872910;76;21066;-48
2022/03/07 00:56:34;;;;;;;27.25;14.15;;;4.00;79.40;;;;;;1872916;76;21030;-51
2022/03/07 00:59:04;;;;;;;22.07;12.70;;;4.00;79.70;;;;;;1872891;77;21027;-49
2022/03/07 01:01:34;;;;;;;22.27;13.32;;;4.10;79.70;;;;;;1873124;76;21027;-50
2022/03/07 01:04:03;;;;;;;22.10;13.30;;;4.10;79.80;;;;;;1872907;76;21027;-51
2022/03/07 01:06:33;;;;;;;23.20;13.35;;;4.20;79.50;;;;;;1873024;75;21027;-50
2022/03/07 01:09:02;;;;;;;24.02;12.88;;;4.20;79.40;;;;;;1872907;75;21085;-51
2022/03/07 01:11:31;;;;;;;22.95;14.23;;;4.10;79.90;;;;;;1872903;77;21059;-48
2022/03/07 01:14:01;;;;;;;22.55;12.70;;;4.10;79.20;;;;;;1872987;77;21089;-49
2022/03/07 01:16:30;;;;;;;22.62;12.88;;;4.10;79.70;;;;;;1873023;75;21031;-49
2022/03/07 01:18:59;;;;;;;24.67;13.93;;;4.10;79.70;;;;;;1872967;77;21456;-51
2022/03/07 01:21:28;;;;;;;22.90;12.78;;;4.10;79.60;;;;;;1872934;75;21027;-50
2022/03/07 01:23:58;;;;;;;20.55;12.88;;;4.10;79.50;;;;;;1872893;76;21139;-49
2022/03/07 01:26:27;;;;;;;26.23;13.75;;;4.10;79.30;;;;;;1873011;76;21093;-50
2022/03/07 01:28:57;;;;;;;27.17;14.78;;;4.10;79.40;;;;;;1873111;76;21083;-47
2022/03/07 01:31:26;;;;;;;26.70;14.18;;;4.10;80.00;;;;;;1873073;77;21148;-48
2022/03/07 01:33:55;;;;;;;24.20;14.53;;;4.20;80.00;;;;;;1872945;77;21007;-51
2022/03/07 01:36:24;;;;;;;22.05;13.15;;;4.20;80.10;;;;;;1873028;77;21007;-49
2022/03/07 01:38:54;;;;;;;24.07;13.95;;;4.30;80.20;;;;;;1873039;76;21007;-49
2022/03/07 01:41:23;;;;;;;26.12;14.70;;;4.30;79.90;;;;;;1873099;76;21031;-47
2022/03/07 01:43:53;;;;;;;27.05;13.08;;;4.30;80.30;;;;;;1885334;76;21046;-50
2022/03/07 01:46:22;;;;;;;25.23;13.80;;;4.30;80.10;;;;;;1891727;76;21047;-48
2022/03/07 01:48:52;;;;;;;22.70;13.05;;;4.30;80.00;;;;;;1891708;75;21088;-51
2022/03/07 01:51:23;;;;;;;25.02;13.13;;;4.40;80.10;;;;;;1891695;75;21018;-51
2022/03/07 01:53:53;;;;;;;23.35;12.80;;;4.40;80.10;;;;;;1871657;76;21022;-51
2022/03/07 01:56:23;;;;;;;20.05;12.50;;;4.40;79.60;;;;;;1891832;75;21031;-51
2022/03/07 01:58:52;;;;;;;25.48;13.55;;;4.40;80.00;;;;;;1891847;76;21024;-49
2022/03/07 02:01:21;;;;;;;24.27;13.18;;;4.40;80.00;;;;;;1891838;76;21034;-48
2022/03/07 02:03:50;;;;;;;20.57;12.50;;;4.30;79.90;;;;;;1891787;76;21026;-51
2022/03/07 02:06:21;;;;;;;21.68;12.23;;;4.40;79.60;;;;;;1891742;76;21085;-50
2022/03/07 02:08:52;;;;;;;19.35;12.88;;;4.30;79.40;;;;;;1891934;75;21026;-51
2022/03/07 02:11:24;;;;;;;24.45;12.20;;;4.30;79.90;;;;;;1891061;75;21099;-50
2022/03/07 02:13:54;;;;;;;21.25;11.75;;;4.20;78.10;;;;;;1891684;76;21030;-48
2022/03/07 02:16:23;;;;;;;19.73;12.70;;;4.10;77.00;;;;;;1891858;75;21034;-48
2022/03/07 02:18:53;;;;;;;21.75;13.08;;;3.90;78.40;;;;;;1891677;76;21062;-50
2022/03/07 02:21:24;;;;;;;21.00;11.25;;;3.90;78.40;;;;;;1891265;75;21046;-49
2022/03/07 02:24:12;;;;;;;21.27;13.55;;;3.80;76.70;;;;;;1891710;76;21531;-49
2022/03/07 02:26:42;;;;;;;27.73;14.25;;;3.60;77.40;;;;;;1891695;75;21091;-49
2022/03/07 02:29:12;;;;;;;24.77;13.08;;;3.60;79.00;;;;;;1891725;76;21026;-50
2022/03/07 02:31:44;;;;;;;19.35;11.28;;;3.60;78.00;;;;;;1871720;76;21015;-49
2022/03/07 02:34:14;;;;;;;23.67;11.93;;;3.50;78.50;;;;;;1891623;75;21092;-51
2022/03/07 02:36:44;;;;;;;26.52;13.05;;;3.50;77.50;;;;;;1891738;76;21034;-50
2022/03/07 02:39:14;;;;;;;25.00;13.60;;;3.40;77.70;;;;;;1891614;75;21087;-48
2022/03/07 02:41:43;;;;;;;25.77;15.15;;;3.40;78.20;;;;;;1891782;76;21088;-48
2022/03/07 02:44:13;;;;;;;24.10;13.32;;;3.30;78.00;;;;;;1882125;76;21034;-50
2022/03/07 02:46:43;;;;;;;24.27;14.35;;;3.30;78.50;;;;;;1872944;76;21027;-50
2022/03/07 02:49:12;;;;;;;27.37;13.48;;;3.30;78.90;;;;;;1872946;77;21051;-48
2022/03/07 02:51:42;;;;;;;28.15;14.05;;;3.30;79.30;;;;;;1873003;75;21039;-52
2022/03/07 02:54:11;;;;;;;25.82;15.30;;;3.40;79.90;;;;;;1872981;76;21023;-48
2022/03/07 02:56:41;;;;;;;23.83;13.22;;;3.50;79.80;;;;;;1872957;76;21043;-50
2022/03/07 02:59:10;;;;;;;22.42;13.70;;;3.60;79.70;;;;;;1873033;77;21007;-50
2022/03/07 03:01:39;;;;;;;25.37;13.72;;;3.60;79.50;;;;;;1872992;77;21084;-52
2022/03/07 03:04:09;;;;;;;21.68;12.65;;;3.70;79.90;;;;;;1873003;77;21019;-49
2022/03/07 03:06:38;;;;;;;23.67;13.58;;;3.80;79.20;;;;;;1872950;77;21023;-49
2022/03/07 03:09:07;;;;;;;27.40;14.65;;;3.80;79.70;;;;;;1872946;77;21074;-47
2022/03/07 03:11:36;;;;;;;24.60;13.80;;;3.80;79.70;;;;;;1872994;77;21116;-50
2022/03/07 03:14:06;;;;;;;27.95;13.58;;;3.90;79.10;;;;;;1872909;77;21442;-49
2022/03/07 03:16:35;;;;;;;25.50;14.68;;;3.80;78.40;;;;;;1872874;77;21081;-50
2022/03/07 03:19:04;;;;;;;26.05;14.00;;;3.80;79.40;;;;;;1872869;76;21509;-50
2022/03/07 03:21:34;;;;;;;21.15;12.90;;;3.80;79.40;;;;;;1872954;77;21509;-51
2022/03/07 03:24:03;;;;;;;23.25;14.15;;;3.80;80.00;;;;;;1872849;77;21011;-48
2022/03/07 03:26:33;;;;;;;27.30;14.25;;;3.80;80.40;;;;;;1872953;77;21035;-52
2022/03/07 03:29:02;;;;;;;24.40;15.18;;;3.90;80.40;;;;;;1872839;77;21084;-48
2022/03/07 03:31:32;;;;;;;25.37;14.80;;;3.90;80.40;;;;;;1872865;77;21092;-50
2022/03/07 03:34:01;;;;;;;27.70;14.45;;;3.90;80.40;;;;;;1872766;77;21003;-48
2022/03/07 03:36:31;;;;;;;25.37;13.62;;;4.00;79.90;;;;;;1872950;77;21027;-48
2022/03/07 03:39:01;;;;;;;21.48;13.88;;;4.00;80.10;;;;;;1872853;77;21035;-51
2022/03/07 03:41:30;;;;;;;24.35;15.30;;;4.00;80.10;;;;;;1872961;77;21093;-51
2022/03/07 03:44:00;;;;;;;24.07;14.35;;;4.10;80.50;;;;;;1875532;76;21571;-49
2022/03/07 03:46:29;;;;;;;23.83;14.18;;;4.00;80.20;;;;;;1891602;76;21022;-48
2022/03/07 03:48:58;;;;;;;24.20;13.75;;;4.10;80.40;;;;;;1891555;75;21084;-49
2022/03/07 03:51:28;;;;;;;25.60;13.45;;;4.10;80.50;;;;;;1891624;76;21070;-47
2022/03/07 03:53:57;;;;;;;27.65;15.32;;;4.20;80.70;;;;;;1891641;76;21406;-51
2022/03/07 03:56:26;;;;;;;26.68;15.03;;;4.30;80.20;;;;;;1891646;76;21042;-51
2022/03/07 03:58:55;;;;;;;24.77;14.05;;;4.20;80.10;;;;;;1891654;76;21007;-48
2022/03/07 04:01:25;;;;;;;27.77;15.43;;;4.10;78.50;;;;;;1891834;76;21101;-50
2022/03/07 04:03:54;;;;;;;26.97;15.68;;;4.00;79.80;;;;;;1891555;76;21030;-50
2022/03/07 04:06:24;;;;;;;29.23;15.30;;;4.00;79.50;;;;;;1891679;76;21035;-48
2022/03/07 04:08:58;;;;;;;32.30;15.35;;;3.90;80.70;;;;;;1891502;76;21076;-48
2022/03/07 04:11:33;;;;;;;30.00;15.35;;;4.00;81.00;;;;;;1891410;75;21050;-49
2022/03/07 04:14:03;;;;;;;26.27;15.03;;;4.10;81.10;;;;;;1891570;76;21026;-51
2022/03/07 04:16:32;;;;;;;25.12;15.03;;;4.10;81.30;;;;;;1891527;76;21033;-50
2022/03/07 04:19:01;;;;;;;32.03;17.15;;;4.20;81.10;;;;;;1891580;76;21006;-49
2022/03/07 04:21:30;;;;;;;28.87;15.55;;;4.20;81.00;;;;;;1891630;76;21034;-48
2022/03/07 04:23:59;;;;;;;33.10;15.80;;;4.30;80.90;;;;;;1891504;76;21006;-50
2022/03/07 04:26:29;;;;;;;30.17;15.65;;;4.30;80.80;;;;;;1891733;76;21057;-49
2022/03/07 04:29:00;;;;;;;28.87;14.68;;;4.20;80.00;;;;;;1891538;76;21030;-49
2022/03/07 04:31:29;;;;;;;31.52;16.52;;;4.10;79.60;;;;;;1891553;76;21030;-50
2022/03/07 04:33:58;;;;;;;26.80;15.88;;;4.10;80.80;;;;;;1891544;76;21131;-48
2022/03/07 04:36:28;;;;;;;27.85;14.45;;;4.10;80.30;;;;;;1891566;76;21088;-48
2022/03/07 04:38:57;;;;;;;29.18;15.98;;;4.00;80.40;;;;;;1891578;76;21167;-48
2022/03/07 04:41:27;;;;;;;30.92;16.02;;;4.00;80.30;;;;;;1891654;76;21088;-53
2022/03/07 04:43:56;;;;;;;32.98;15.65;;;4.00;80.50;;;;;;1891537;76;21088;-53
2022/03/07 04:46:26;;;;;;;28.73;15.95;;;3.90;79.80;;;;;;1874932;76;21058;-53
2022/03/07 04:48:55;;;;;;;32.23;17.48;;;3.90;80.20;;;;;;1872777;77;21011;-52
2022/03/07 04:51:25;;;;;;;29.87;16.85;;;3.90;80.90;;;;;;1872791;77;21113;-52
2022/03/07 04:53:54;;;;;;;25.77;15.00;;;3.90;80.50;;;;;;1872716;77;21081;-52
2022/03/07 04:56:23;;;;;;;30.30;17.25;;;3.90;80.40;;;;;;1872871;77;21019;-52
2022/03/07 04:58:53;;;;;;;34.35;16.20;;;3.80;80.20;;;;;;1872686;75;21055;-50
2022/03/07 05:01:23;;;;;;;25.15;14.70;;;3.80;80.80;;;;;;1872795;77;20999;-51
2022/03/07 05:03:52;;;;;;;29.37;15.45;;;3.90;81.50;;;;;;1872775;77;21023;-52
2022/03/07 05:06:21;;;;;;;31.62;16.87;;;3.90;80.00;;;;;;1872784;77;21086;-49
2022/03/07 05:08:51;;;;;;;30.25;16.35;;;3.90;80.60;;;;;;1873055;76;21083;-51
2022/03/07 05:11:20;;;;;;;29.32;16.32;;;4.00;80.50;;;;;;1872762;77;21027;-50
2022/03/07 05:13:49;;;;;;;30.88;16.90;;;4.00;80.80;;;;;;1872703;77;21026;-53
2022/03/07 05:16:18;;;;;;;27.35;14.90;;;4.00;79.80;;;;;;1872734;75;21075;-52
2022/03/07 05:18:47;;;;;;;27.62;16.70;;;4.00;80.50;;;;;;1872784;76;21042;-51
2022/03/07 05:21:17;;;;;;;30.15;17.23;;;4.00;81.20;;;;;;1872962;76;21027;-53
2022/03/07 05:23:46;;;;;;;30.85;16.75;;;4.10;80.20;;;;;;1872855;77;21031;-48
2022/03/07 05:26:15;;;;;;;24.47;14.05;;;4.20;80.40;;;;;;1872887;76;21461;-52
2022/03/07 05:28:44;;;;;;;36.88;16.20;;;4.20;80.20;;;;;;1872864;76;20996;-52
2022/03/07 05:31:15;;;;;;;28.00;15.60;;;4.20;80.80;;;;;;1872876;75;21564;-49
2022/03/07 05:33:44;;;;;;;27.10;16.05;;;4.30;79.70;;;;;;1872782;76;21089;-52
2022/03/07 05:36:13;;;;;;;28.40;14.98;;;4.20;80.00;;;;;;1872871;75;21035;-51
2022/03/07 05:38:43;;;;;;;34.50;14.68;;;4.30;80.50;;;;;;1872807;76;21043;-51
2022/03/07 05:41:12;;;;;;;28.87;15.10;;;4.40;80.90;;;;;;1872967;76;21035;-52
2022/03/07 05:43:41;;;;;;;22.93;14.58;;;4.50;80.80;;;;;;1872970;77;21011;-51
2022/03/07 05:46:10;;;;;;;26.57;14.05;;;4.50;80.50;;;;;;1872801;76;21462;-49
2022/03/07 05:48:40;;;;;;;24.25;13.38;;;4.60;79.90;;;;;;1872929;77;21039;-51
2022/03/07 05:51:09;;;;;;;28.12;14.85;;;4.60;79.70;;;;;;1872833;76;21096;-50
2022/03/07 05:53:38;;;;;;;24.10;14.58;;;4.70;80.30;;;;;;1872901;77;21062;-49
2022/03/07 05:56:08;;;;;;;32.15;13.95;;;4.70;80.50;;;;;;1872861;77;21136;-50
2022/03/07 05:58:37;;;;;;;27.30;14.63;;;4.80;80.50;;;;;;1872820;76;21030;-52
2022/03/07 06:01:06;;;;;;;22.10;12.33;;;4.90;80.50;;;;;;1872842;75;21007;-51
2022/03/07 06:03:36;;;;;;;21.30;13.15;;;5.00;80.60;;;;;;1872903;76;21516;-50
2022/03/07 06:06:05;;;;;;;27.67;13.15;;;5.10;80.30;;;;;;1872888;77;21026;-51
2022/03/07 06:08:35;;;;;;;21.85;13.18;;;5.10;80.50;;;;;;1872864;77;21027;-52
2022/03/07 06:11:04;;;;;;;26.33;15.20;;;5.10;80.40;;;;;;1872922;76;21086;-50
2022/03/07 06:13:34;;;;;;;34.48;15.25;;;5.20;80.20;;;;;;1872848;77;21027;-51
2022/03/07 06:16:03;;;;;;;27.95;15.38;;;5.20;80.00;;;;;;1872925;77;21035;-52
2022/03/07 06:18:33;;;;;;;21.35;12.55;;;5.20;80.10;;;;;;1872806;77;21097;-51
2022/03/07 06:21:03;;;;;;;23.75;15.25;;;5.20;78.90;;;;;;1872890;77;21027;-52
2022/03/07 06:23:32;;;;;;;26.87;14.98;;;5.10;79.80;;;;;;1872921;75;21007;-51
2022/03/07 06:26:01;;;;;;;27.60;14.28;;;5.10;79.40;;;;;;1872953;77;21093;-49
2022/03/07 06:28:31;;;;;;;22.22;14.75;;;5.10;79.40;;;;;;1872892;77;21031;-50
2022/03/07 06:31:00;;;;;;;31.52;15.08;;;5.10;79.90;;;;;;1872933;76;21089;-52
2022/03/07 06:33:29;;;;;;;22.93;12.98;;;5.10;80.20;;;;;;1872806;77;21030;-49
2022/03/07 06:35:59;;;;;;;24.75;13.75;;;5.20;79.50;;;;;;1872972;77;21086;-52
2022/03/07 06:38:28;;;;;;;26.07;14.68;;;5.20;79.40;;;;;;1872833;76;21031;-52
2022/03/07 06:40:58;;;;;;;23.47;12.80;;;5.10;79.10;;;;;;1872753;76;21089;-49
2022/03/07 06:43:27;;;;;;;22.22;13.70;;;5.20;79.00;;;;;;1872820;77;21031;-53
2022/03/07 06:45:57;;;;;;;24.30;14.45;;;5.10;79.10;;;;;;1876549;75;21038;-53
2022/03/07 06:48:26;;;;;;;24.35;14.13;;;5.10;79.60;;;;;;1891575;76;21018;-52
2022/03/07 06:50:56;;;;;;;25.48;12.80;;;5.20;79.90;;;;;;1891583;76;21043;-49
2022/03/07 06:53:25;;;;;;;22.75;12.88;;;5.30;78.80;;;;;;1891683;76;21088;-52
2022/03/07 06:55:54;;;;;;;22.30;13.93;;;5.30;78.30;;;;;;1891543;76;21046;-50
2022/03/07 06:58:24;;;;;;;22.15;12.78;;;5.30;78.80;;;;;;1891684;76;21051;-51
2022/03/07 07:00:53;;;;;;;24.60;13.20;;;5.30;79.00;;;;;;1891538;76;21098;-52
2022/03/07 07:03:23;;;;;;;25.10;13.45;;;5.30;79.00;;;;;;1891651;76;21018;-54
2022/03/07 07:05:52;;;;;;;22.77;12.10;;;5.40;79.10;;;;;;1891525;76;21053;-51
2022/03/07 07:08:21;;;;;;;33.00;12.23;;;5.40;78.40;;;;;;1891538;76;21066;-50
2022/03/07 07:10:51;;;;;;;22.32;12.65;;;5.40;78.90;;;;;;1891644;76;21006;-52
2022/03/07 07:13:20;;;;;;;22.25;11.30;;;5.50;78.60;;;;;;1891669;76;21038;-52
2022/03/07 07:15:55;;;;;;;20.12;11.88;;;5.40;78.30;;;;;;1891651;76;21041;-53
2022/03/07 07:18:21;;;;;;;17.98;10.75;;;5.40;78.30;;;;;;1891168;75;21096;-52
2022/03/07 07:20:50;;;;;;;26.05;12.45;;;5.50;78.40;;;;;;1891503;76;21038;-53
2022/03/07 07:23:21;;;;;;;23.42;13.00;;;5.40;78.60;;;;;;1891672;76;21092;-51
2022/03/07 07:25:51;;;;;;;28.17;14.43;;;5.50;77.30;;;;;;1891657;76;21088;-53
2022/03/07 07:28:20;;;;;;;44.08;20.48;;;5.50;77.90;;;;;;1891711;76;21090;-52
2022/03/07 07:30:50;;;;;;;48.00;21.75;;;5.40;77.70;;;;;;1891548;76;21030;-50
2022/03/07 07:33:20;;;;;;;39.30;21.30;;;5.40;77.50;;;;;;1891349;76;21176;-51
2022/03/07 07:35:49;;;;;;;42.93;19.77;;;5.30;77.10;;;;;;1891496;76;21061;-50
2022/03/07 07:38:19;;;;;;;37.25;19.37;;;5.20;77.20;;;;;;1891495;76;21132;-49
2022/03/07 07:40:49;;;;;;;31.85;16.55;;;5.10;77.50;;;;;;1891515;76;21337;-51
2022/03/07 07:43:19;;;;;;;33.28;18.05;;;5.10;77.40;;;;;;1891418;75;21006;-51
2022/03/07 07:45:48;;;;;;;30.08;17.42;;;5.00;77.70;;;;;;1891562;75;21026;-50
2022/03/07 07:48:17;;;;;;;35.58;17.92;;;5.00;78.00;;;;;;1874408;76;21125;-51
2022/03/07 07:50:46;;;;;;;37.20;19.55;;;5.00;77.90;;;;;;1872768;77;21470;-53
2022/03/07 07:53:16;;;;;;;34.75;19.98;;;5.10;77.30;;;;;;1872759;77;21108;-50
2022/03/07 07:55:46;;;;;;;32.15;17.48;;;5.00;78.00;;;;;;1872733;77;21085;-50
2022/03/07 07:58:15;;;;;;;35.65;17.50;;;5.10;77.10;;;;;;1872820;77;21050;-52
2022/03/07 08:00:44;;;;;;;34.10;18.75;;;5.10;77.90;;;;;;1872875;77;21027;-49
2022/03/07 08:03:14;;;;;;;47.50;21.17;;;5.10;77.50;;;;;;1873007;76;21507;-51
2022/03/07 08:05:45;;;;;;;53.58;19.32;;;5.00;77.70;;;;;;1873075;76;21092;-49
2022/03/07 08:08:14;;;;;;;37.05;18.35;;;5.10;78.00;;;;;;1873056;75;21042;-51
2022/03/07 08:10:43;;;;;;;32.33;18.27;;;5.10;78.00;;;;;;1872958;76;21007;-53
2022/03/07 08:13:13;;;;;;;44.13;20.43;;;5.10;77.30;;;;;;1872975;77;21051;-49
2022/03/07 08:15:42;;;;;;;38.65;18.80;;;5.10;76.70;;;;;;1872979;77;21031;-49
2022/03/07 08:18:12;;;;;;;32.55;17.95;;;5.00;77.50;;;;;;1872853;77;21027;-49
2022/03/07 08:20:41;;;;;;;38.70;18.35;;;5.00;78.00;;;;;;1873016;77;21007;-52
2022/03/07 08:23:11;;;;;;;33.02;18.82;;;5.10;77.50;;;;;;1872828;76;21113;-50
2022/03/07 08:25:40;;;;;;;37.88;17.80;;;5.00;77.40;;;;;;1872913;76;21007;-49
2022/03/07 08:28:09;;;;;;;39.45;20.55;;;5.10;78.10;;;;;;1872890;77;21144;-53
2022/03/07 08:30:39;;;;;;;35.28;18.62;;;5.10;77.10;;;;;;1872887;77;21129;-51
2022/03/07 08:33:08;;;;;;;38.05;18.35;;;5.10;77.30;;;;;;1872839;77;21033;-52
2022/03/07 08:35:38;;;;;;;41.10;18.80;;;5.10;77.00;;;;;;1872764;75;21085;-51
2022/03/07 08:38:07;;;;;;;38.83;18.37;;;5.00;77.60;;;;;;1872842;77;21034;-49
2022/03/07 08:40:36;;;;;;;39.53;23.62;;;5.00;77.50;;;;;;1872786;76;21043;-52
2022/03/07 08:43:06;;;;;;;39.27;20.20;;;5.00;77.00;;;;;;1872702;77;21132;-51
2022/03/07 08:45:36;;;;;;;41.02;20.60;;;5.00;77.20;;;;;;1872809;77;21071;-50
2022/03/07 08:48:06;;;;;;;39.27;18.23;;;5.10;77.90;;;;;;1872818;75;21101;-51
2022/03/07 08:50:35;;;;;;;33.28;18.00;;;5.10;77.80;;;;;;1872867;76;21024;-50
2022/03/07 08:53:04;;;;;;;34.85;20.12;;;5.20;77.70;;;;;;1872776;76;21025;-50
2022/03/07 08:55:34;;;;;;;28.83;16.40;;;5.20;76.60;;;;;;1872996;76;21027;-48
2022/03/07 08:58:03;;;;;;;36.33;19.85;;;5.20;77.30;;;;;;1872865;76;21035;-50
2022/03/07 09:00:33;;;;;;;36.88;17.82;;;5.30;76.60;;;;;;1872853;75;21023;-50
2022/03/07 09:03:04;;;;;;;35.95;18.27;;;5.30;77.60;;;;;;1872882;76;21130;-53
2022/03/07 09:05:35;;;;;;;34.80;18.12;;;5.30;77.60;;;;;;1872998;75;21094;-51
2022/03/07 09:08:04;;;;;;;40.95;18.30;;;5.40;77.90;;;;;;1873015;76;21110;-50
2022/03/07 09:10:34;;;;;;;36.48;20.82;;;5.60;77.20;;;;;;1872927;77;21031;-49
2022/03/07 09:13:03;;;;;;;30.90;17.77;;;5.60;77.70;;;;;;1872973;77;21071;-51
2022/03/07 09:15:33;;;;;;;32.95;17.80;;;5.70;77.00;;;;;;1872831;75;21145;-50
2022/03/07 09:18:03;;;;;;;35.00;19.92;;;5.70;77.20;;;;;;1872863;75;21055;-52
2022/03/07 09:20:32;;;;;;;36.80;17.90;;;5.80;77.60;;;;;;1872843;77;21031;-50
2022/03/07 09:23:01;;;;;;;33.28;18.15;;;5.80;76.80;;;;;;1872861;76;21089;-50
2022/03/07 09:25:31;;;;;;;36.38;18.23;;;5.80;77.00;;;;;;1872851;75;21088;-51
2022/03/07 09:28:00;;;;;;;34.48;17.25;;;5.80;76.10;;;;;;1872935;75;21054;-50
2022/03/07 09:30:30;;;;;;;29.48;15.95;;;5.80;76.20;;;;;;1872954;76;21023;-50
2022/03/07 09:33:03;;;;;;;28.30;15.28;;;5.80;76.30;;;;;;1872691;77;21066;-50
2022/03/07 09:35:32;;;;;;;31.62;16.00;;;5.70;76.50;;;;;;1872907;76;21035;-50
2022/03/07 09:38:02;;;;;;;35.52;15.93;;;5.70;76.90;;;;;;1872976;76;21039;-49
2022/03/07 09:40:31;;;;;;;27.80;15.55;;;5.80;76.40;;;;;;1872832;75;21007;-52
2022/03/07 09:43:01;;;;;;;24.18;15.10;;;5.80;76.00;;;;;;1872934;77;21047;-52
2022/03/07 09:45:30;;;;;;;28.17;15.28;;;5.80;76.50;;;;;;1872879;77;21027;-52
2022/03/07 09:48:00;;;;;;;27.70;14.45;;;5.70;76.50;;;;;;1872854;76;21090;-52
2022/03/07 09:50:30;;;;;;;26.07;14.80;;;5.80;76.60;;;;;;1872874;77;21051;-49
2022/03/07 09:53:00;;;;;;;28.95;16.57;;;5.80;76.90;;;;;;1872939;76;21124;-50
2022/03/07 09:55:30;;;;;;;27.58;14.98;;;5.80;77.20;;;;;;1872787;77;21070;-48
2022/03/07 09:57:59;;;;;;;22.35;13.40;;;5.90;76.10;;;;;;1872733;77;21082;-53
2022/03/07 10:00:28;;;;;;;26.30;14.43;;;5.90;75.80;;;;;;1872845;76;21027;-52
2022/03/07 10:02:59;;;;;;;26.77;13.53;;;5.90;76.00;;;;;;1872794;76;21031;-51
2022/03/07 10:05:30;;;;;;;26.20;15.32;;;5.90;76.70;;;;;;1872738;75;20999;-50
2022/03/07 10:07:59;;;;;;;25.27;14.33;;;5.90;75.40;;;;;;1871916;75;21078;-51
2022/03/07 10:10:34;;;;;;;26.15;14.58;;;5.90;73.70;;;;;;1872841;75;21023;-49
2022/03/07 10:13:11;;;;;;;23.40;14.00;;;5.80;74.30;;;;;;1872961;77;21390;-50
2022/03/07 10:15:42;;;;;;;23.77;14.40;;;5.80;75.00;;;;;;1872849;77;21493;-50
2022/03/07 10:18:18;;;;;;;24.52;12.78;;;5.80;75.50;;;;;;1872811;77;21047;-51
2022/03/07 10:20:55;;;;;;;23.83;14.95;;;5.80;76.10;;;;;;1872856;76;21023;-51
2022/03/07 10:23:27;;;;;;;28.77;15.25;;;5.90;75.00;;;;;;1872939;77;21175;-50
2022/03/07 10:26:12;;;;;;;29.12;15.43;;;5.90;76.00;;;;;;1872893;77;21023;-50
2022/03/07 10:28:41;;;;;;;33.08;17.27;;;6.00;74.90;;;;;;1872917;76;21122;-50
2022/03/07 10:31:15;;;;;;;61.98;16.87;;;6.10;75.40;;;;;;1872962;77;21090;-49
2022/03/07 10:33:48;;;;;;;26.90;13.95;;;6.10;75.40;;;;;;1872831;75;21031;-49
2022/03/07 10:36:18;;;;;;;30.43;15.78;;;6.20;74.50;;;;;;1872913;77;21093;-52
2022/03/07 10:38:50;;;;;;;29.75;14.83;;;6.10;75.30;;;;;;1872828;75;21023;-48
2022/03/07 10:41:19;;;;;;;24.30;13.13;;;6.10;75.00;;;;;;1871651;76;21568;-49
2022/03/07 10:43:49;;;;;;;22.58;13.90;;;6.20;74.40;;;;;;1872826;77;21004;-49
2022/03/07 10:46:24;;;;;;;27.15;14.05;;;6.20;75.40;;;;;;1872978;77;21007;-49
2022/03/07 10:48:53;;;;;;;25.02;13.83;;;6.20;75.50;;;;;;1881322;76;21066;-49
2022/03/07 10:51:25;;;;;;;23.40;12.88;;;6.30;75.20;;;;;;1891479;76;21585;-49
2022/03/07 10:53:55;;;;;;;27.25;14.73;;;6.30;74.80;;;;;;1891579;76;21160;-51
2022/03/07 10:56:24;;;;;;;26.77;14.18;;;6.30;74.50;;;;;;1891497;76;21003;-51
2022/03/07 10:58:55;;;;;;;25.00;13.03;;;6.30;75.30;;;;;;1891655;75;21090;-51
2022/03/07 11:01:32;;;;;;;20.25;12.10;;;6.30;75.00;;;;;;1891607;76;21022;-50
2022/03/07 11:04:02;;;;;;;21.17;12.78;;;6.30;73.70;;;;;;1891626;76;20998;-50
2022/03/07 11:06:32;;;;;;;21.33;12.58;;;6.30;73.60;;;;;;1891471;75;21003;-50
2022/03/07 11:09:01;;;;;;;21.93;12.15;;;6.20;74.30;;;;;;1891613;76;21131;-51
2022/03/07 11:11:30;;;;;;;21.02;10.08;;;6.10;74.50;;;;;;1891602;76;21030;-50
2022/03/07 11:14:00;;;;;;;29.70;13.13;;;6.10;73.80;;;;;;1891565;76;21132;-48
2022/03/07 11:16:31;;;;;;;20.95;12.25;;;6.10;74.40;;;;;;1891463;76;21003;-50
2022/03/07 11:19:01;;;;;;;21.05;10.88;;;6.10;75.00;;;;;;1891567;76;21042;-49
2022/03/07 11:21:31;;;;;;;16.05;10.55;;;6.10;75.20;;;;;;1891562;76;21034;-49
2022/03/07 11:24:01;;;;;;;53.20;15.18;;;6.10;75.00;;;;;;1891462;76;21039;-49
2022/03/07 11:26:31;;;;;;;18.95;11.38;;;6.00;75.10;;;;;;1891455;76;21058;-49
2022/03/07 11:29:00;;;;;;;15.93;9.68;;;6.10;75.00;;;;;;1891490;76;21007;-50
2022/03/07 11:31:30;;;;;;;19.82;12.35;;;6.10;74.90;;;;;;1891492;76;21139;-49
2022/03/07 11:33:59;;;;;;;10.93;7.72;;;6.00;74.10;;;;;;1891690;76;21053;-48
2022/03/07 11:36:30;;;;;;;20.05;12.65;;;5.90;73.30;;;;;;1891756;76;21026;-50
2022/03/07 11:39:01;;;;;;;20.15;11.78;;;5.80;74.40;;;;;;1891567;75;21089;-50
2022/03/07 11:41:33;;;;;;;22.55;11.15;;;5.80;75.40;;;;;;1891486;76;21104;-50
2022/03/07 11:44:11;;;;;;;21.25;12.73;;;5.80;75.20;;;;;;1891570;76;21026;-49
2022/03/07 11:46:42;;;;;;;21.50;12.37;;;5.90;75.00;;;;;;1891553;76;21139;-50
2022/03/07 11:49:14;;;;;;;24.70;12.75;;;6.00;74.70;;;;;;1885487;75;21124;-50
2022/03/07 11:51:44;;;;;;;22.77;13.08;;;6.00;74.90;;;;;;1872002;76;21089;-50
2022/03/07 11:54:22;;;;;;;21.27;11.68;;;6.10;75.50;;;;;;1872923;77;21023;-53
2022/03/07 11:56:52;;;;;;;23.52;13.90;;;6.10;75.00;;;;;;1872749;76;21027;-49
2022/03/07 11:59:29;;;;;;;21.00;13.88;;;6.10;75.10;;;;;;1872805;77;21450;-50
2022/03/07 12:01:58;;;;;;;21.80;11.97;;;6.20;75.20;;;;;;1872791;77;21102;-49
2022/03/07 12:04:42;;;;;;;22.37;12.47;;;6.20;74.90;;;;;;1872812;77;21003;-50
2022/03/07 12:07:12;;;;;;;21.20;12.78;;;6.30;75.30;;;;;;1872881;77;21027;-50
2022/03/07 12:09:41;;;;;;;25.50;12.88;;;6.40;75.20;;;;;;1872758;77;21101;-50
2022/03/07 12:12:13;;;;;;;20.20;12.20;;;6.40;75.20;;;;;;1872704;77;21043;-49
2022/03/07 12:14:47;;;;;;;21.60;11.95;;;6.50;74.50;;;;;;1872925;75;21019;-49
2022/03/07 12:17:18;;;;;;;22.48;12.18;;;6.50;74.80;;;;;;1872969;77;21108;-52
2022/03/07 12:19:55;;;;;;;19.37;11.35;;;6.60;74.70;;;;;;1872862;77;21031;-49
2022/03/07 12:22:30;;;;;;;15.40;10.23;;;6.60;72.90;;;;;;1872722;77;21023;-51
2022/03/07 12:25:00;;;;;;;18.82;11.43;;;6.60;72.30;;;;;;1872909;75;21367;-51
2022/03/07 12:27:33;;;;;;;19.70;11.20;;;6.60;72.80;;;;;;1872865;75;21089;-52
2022/03/07 12:30:01;;;;;;;15.53;10.60;;;6.50;73.20;;;;;;1872615;76;21055;-52
2022/03/07 12:32:30;;;;;;;17.23;10.90;;;6.50;73.00;;;;;;1872776;77;21078;-51
2022/03/07 12:35:00;;;;;;;17.02;10.10;;;6.50;73.10;;;;;;1872750;77;21051;-52
2022/03/07 12:37:29;;;;;;;21.65;10.72;;;6.40;72.70;;;;;;1872682;77;21039;-51
2022/03/07 12:40:03;;;;;;;14.73;9.25;;;6.40;73.10;;;;;;1872853;77;21097;-48
2022/03/07 12:42:34;;;;;;;7.15;5.33;;;6.30;72.30;;;;;;1872734;77;21019;-48
2022/03/07 12:45:05;;;;;;;22.67;11.97;;;6.30;72.20;;;;;;1872761;77;21003;-50
2022/03/07 12:47:36;;;;;;;23.65;11.38;;;6.20;72.80;;;;;;1872878;77;21003;-50
2022/03/07 12:50:10;;;;;;;17.73;10.58;;;6.20;73.70;;;;;;1881317;76;21070;-50
2022/03/07 12:52:43;;;;;;;15.13;8.88;;;6.20;72.90;;;;;;1891413;76;21185;-51